Time;durP1;ratioP1;P1;durP2;ratioP2;P2;SDS_P1;SDS_P2;PMS_P1;PMS_P2;Temp;Humidity;BMP_temperature;BMP_pressure;BME280_temperature;BME280_humidity;BME280_pressure;Samples;Min_cycle;Max_cycle;Signal;HPM_P1;HPM_P2
2023/12/16 00:01:11;;;;;;;18.58;4.18;;;;;;;6.47;100.00;103354.69;6275468;28;20059;-71
2023/12/16 00:04:12;;;;;;;17.42;4.80;;;;;;;6.37;100.00;103343.31;6265192;28;20051;-68
2023/12/16 00:07:15;;;;;;;14.93;4.25;;;;;;;6.28;100.00;103362.41;6256224;28;20053;-68
2023/12/16 00:10:16;;;;;;;22.90;5.13;;;;;;;6.28;100.00;103356.31;6267420;28;20057;-69
2023/12/16 00:13:18;;;;;;;16.02;4.78;;;;;;;6.29;100.00;103368.50;6266879;28;20120;-68
2023/12/16 00:16:19;;;;;;;18.58;5.05;;;;;;;6.24;100.00;103373.69;6275191;28;20060;-69
2023/12/16 00:19:21;;;;;;;11.25;4.00;;;;;;;6.31;100.00;103372.91;6275101;28;20052;-69
2023/12/16 00:22:25;;;;;;;29.48;4.97;;;;;;;6.27;100.00;103368.50;6266601;28;20060;-68
2023/12/16 00:25:26;;;;;;;14.75;4.13;;;;;;;6.33;100.00;103365.94;6266882;28;20053;-68
2023/12/16 00:28:27;;;;;;;16.58;4.10;;;;;;;6.34;100.00;103361.56;6274835;28;20048;-69
2023/12/16 00:31:29;;;;;;;9.70;4.30;;;;;;;6.33;100.00;103355.47;6275184;28;20049;-68
2023/12/16 00:34:33;;;;;;;13.48;4.75;;;;;;;6.36;100.00;103354.63;6274984;28;20056;-69
2023/12/16 00:37:36;;;;;;;8.98;3.88;;;;;;;6.39;100.00;103359.00;6271035;28;20098;-69
2023/12/16 00:40:37;;;;;;;16.58;4.35;;;;;;;6.33;100.00;103357.22;6266603;28;20049;-69
2023/12/16 00:43:38;;;;;;;17.17;4.88;;;;;;;6.36;100.00;103357.25;6274926;28;20053;-68
2023/12/16 00:46:40;;;;;;;12.02;4.00;;;;;;;6.37;100.00;103363.34;6277417;28;20049;-68
2023/12/16 00:49:41;;;;;;;17.05;4.28;;;;;;;6.35;100.00;103361.56;6280349;28;20060;-69
2023/12/16 00:52:44;;;;;;;10.93;4.32;;;;;;;6.38;100.00;103355.50;6279917;28;20045;-69
2023/12/16 00:55:45;;;;;;;14.95;4.50;;;;;;;6.36;100.00;103349.41;6280178;28;20052;-69
2023/12/16 00:58:47;;;;;;;14.45;3.92;;;;;;;6.39;100.00;103356.38;6279920;28;20380;-68
2023/12/16 01:01:48;;;;;;;15.18;5.15;;;;;;;6.39;100.00;103348.53;6279542;28;20056;-68
2023/12/16 01:04:51;;;;;;;10.73;4.22;;;;;;;6.46;100.00;103358.19;6279630;28;20044;-69
2023/12/16 01:07:54;;;;;;;21.10;5.03;;;;;;;6.41;100.00;103349.44;6279545;28;20045;-68
2023/12/16 01:10:55;;;;;;;10.30;3.97;;;;;;;6.41;100.00;103349.44;6279906;28;20049;-68
2023/12/16 01:13:57;;;;;;;22.20;4.10;;;;;;;6.39;100.00;103359.88;6279212;28;20449;-69
2023/12/16 01:16:58;;;;;;;17.42;4.22;;;;;;;6.49;100.00;103343.38;6279789;28;20143;-68
2023/12/16 01:19:59;;;;;;;18.52;3.80;;;;;;;6.47;100.00;103349.47;6279498;28;20136;-69
2023/12/16 01:23:02;;;;;;;16.10;3.90;;;;;;;6.43;100.00;103350.31;6279433;28;20048;-68
2023/12/16 01:26:04;;;;;;;11.57;4.10;;;;;;;6.46;100.00;103342.50;6279266;28;20059;-69
2023/12/16 01:29:05;;;;;;;8.90;3.75;;;;;;;6.47;100.00;103349.47;6279214;28;20568;-69
2023/12/16 01:32:08;;;;;;;12.13;3.55;;;;;;;6.56;100.00;103363.44;6279101;28;20468;-69
2023/12/16 01:35:10;;;;;;;10.60;2.67;;;;;;;6.54;100.00;103354.75;6278962;28;20045;-69
2023/12/16 01:38:12;;;;;;;13.77;3.88;;;;;;;6.55;100.00;103358.22;6278803;28;20468;-67
2023/12/16 01:41:14;;;;;;;14.98;3.25;;;;;;;6.57;100.00;103348.66;6278808;28;20053;-69
2023/12/16 01:44:15;;;;;;;17.85;4.20;;;;;;;6.59;100.00;103352.16;6261714;28;20050;-68
2023/12/16 01:47:17;;;;;;;17.77;3.40;;;;;;;6.58;100.00;103355.59;6231953;28;20048;-67
2023/12/16 01:50:18;;;;;;;14.00;3.35;;;;;;;6.58;100.00;103356.47;6247295;28;20053;-67
2023/12/16 01:53:21;;;;;;;9.70;2.60;;;;;;;6.61;100.00;103351.28;6234401;28;20463;-67
2023/12/16 01:56:23;;;;;;;9.70;3.25;;;;;;;6.66;100.00;103356.53;6229125;28;20358;-69
2023/12/16 01:59:26;;;;;;;16.55;3.63;;;;;;;6.63;100.00;103353.03;6228031;28;20046;-69
2023/12/16 02:02:28;;;;;;;21.13;3.65;;;;;;;6.66;100.00;103364.38;6228890;28;20045;-69
2023/12/16 02:05:30;;;;;;;11.48;2.60;;;;;;;6.69;100.00;103369.63;6260262;28;20049;-67
2023/12/16 02:08:33;;;;;;;4.55;2.70;;;;;;;6.69;100.00;103360.91;6278239;28;20048;-68
2023/12/16 02:11:34;;;;;;;11.57;3.45;;;;;;;6.63;100.00;103374.78;6278382;28;20056;-68
2023/12/16 02:14:35;;;;;;;11.93;3.33;;;;;;;6.63;100.00;103380.03;6278044;28;20045;-68
2023/12/16 02:17:37;;;;;;;13.15;2.50;;;;;;;6.59;100.00;103386.13;6273503;28;20357;-69
2023/12/16 02:20:38;;;;;;;14.60;3.65;;;;;;;6.67;100.00;103384.41;6269751;28;20464;-68
2023/12/16 02:23:41;;;;;;;8.57;3.17;;;;;;;6.61;100.00;103379.16;6277896;28;20041;-69
2023/12/16 02:26:42;;;;;;;13.00;3.17;;;;;;;6.55;100.00;103373.91;6268946;28;20049;-69
2023/12/16 02:29:44;;;;;;;9.50;3.00;;;;;;;6.61;100.00;103377.41;6269649;28;20431;-69
2023/12/16 02:32:45;;;;;;;7.38;2.20;;;;;;;6.58;100.00;103368.69;6277696;28;20056;-69
2023/12/16 02:35:46;;;;;;;10.07;2.70;;;;;;;6.65;100.00;103364.38;6277752;28;20080;-69
2023/12/16 02:38:49;;;;;;;14.48;2.70;;;;;;;6.68;100.00;103362.66;6277535;28;20053;-68
2023/12/16 02:41:50;;;;;;;17.27;3.92;;;;;;;6.66;100.00;103361.75;6277206;28;20358;-68
2023/12/16 02:44:52;;;;;;;6.10;2.28;;;;;;;6.67;100.00;103371.34;6276998;28;20049;-69
2023/12/16 02:47:53;;;;;;;9.38;2.20;;;;;;;6.73;100.00;103370.53;6277378;28;20048;-69
2023/12/16 02:50:54;;;;;;;9.20;2.30;;;;;;;6.79;100.00;103374.03;6277506;28;20049;-68
2023/12/16 02:53:57;;;;;;;15.65;2.90;;;;;;;6.79;100.00;103374.03;6277108;28;20345;-67
2023/12/16 02:56:58;;;;;;;9.48;2.47;;;;;;;6.83;100.00;103380.13;6277450;28;20056;-68
2023/12/16 03:00:00;;;;;;;11.65;2.70;;;;;;;6.76;100.00;103378.34;6277190;28;20049;-68
2023/12/16 03:03:01;;;;;;;9.82;2.40;;;;;;;6.79;100.00;103375.75;6277125;28;20052;-68
2023/12/16 03:06:06;;;;;;;10.48;2.17;;;;;;;6.74;100.00;103383.59;6276727;28;20045;-68
2023/12/16 03:09:09;;;;;;;4.60;1.45;;;;;;;6.77;100.00;103388.84;6277004;28;20052;-68
2023/12/16 03:12:10;;;;;;;7.85;2.15;;;;;;;6.80;100.00;103377.50;6276836;28;20056;-68
2023/12/16 03:15:11;;;;;;;8.32;2.33;;;;;;;6.80;100.00;103380.97;6276572;28;20342;-68
2023/12/16 03:18:13;;;;;;;8.95;2.28;;;;;;;6.83;100.00;103382.75;6276832;28;20045;-67
2023/12/16 03:21:14;;;;;;;8.30;2.22;;;;;;;6.84;100.00;103381.88;6276630;28;20049;-68
2023/12/16 03:24:17;;;;;;;9.38;2.85;;;;;;;6.85;100.00;103383.63;6276509;28;20045;-68
2023/12/16 03:27:18;;;;;;;8.00;2.20;;;;;;;6.82;100.00;103379.28;6276537;28;20052;-68
2023/12/16 03:30:19;;;;;;;13.25;2.58;;;;;;;6.82;100.00;103373.19;6276392;28;20334;-68
2023/12/16 03:33:21;;;;;;;9.77;2.50;;;;;;;6.83;100.00;103378.41;6276284;28;20047;-68
2023/12/16 03:36:22;;;;;;;10.57;2.45;;;;;;;6.82;100.00;103367.94;6276121;28;20060;-68
2023/12/16 03:39:25;;;;;;;11.18;1.98;;;;;;;6.82;100.00;103363.59;6276131;28;20349;-68
2023/12/16 03:42:26;;;;;;;13.05;2.60;;;;;;;6.85;100.00;103349.63;6276076;28;20053;-68
2023/12/16 03:45:28;;;;;;;7.30;1.95;;;;;;;6.86;100.00;103351.41;6275870;28;20353;-69
2023/12/16 03:48:29;;;;;;;11.60;2.28;;;;;;;6.84;100.00;103348.78;6276035;28;20136;-68
2023/12/16 03:51:30;;;;;;;9.13;2.22;;;;;;;6.85;100.00;103352.25;6275981;28;20057;-68
2023/12/16 03:54:33;;;;;;;6.65;1.88;;;;;;;6.84;100.00;103345.28;6275711;28;20045;-68
2023/12/16 03:57:35;;;;;;;4.28;1.60;;;;;;;6.89;100.00;103346.19;6259058;28;20052;-68
2023/12/16 04:00:36;;;;;;;10.77;2.17;;;;;;;6.86;100.00;103348.81;6251002;28;20060;-68
2023/12/16 04:03:37;;;;;;;6.18;1.55;;;;;;;6.92;100.00;103342.72;6249217;28;20045;-68
2023/12/16 04:06:39;;;;;;;6.45;1.23;;;;;;;6.94;100.00;103348.81;6238057;28;20056;-68
2023/12/16 04:09:41;;;;;;;9.43;1.70;;;;;;;6.94;100.00;103338.34;6250973;28;20057;-68
2023/12/16 04:12:43;;;;;;;5.35;1.52;;;;;;;6.96;100.00;103337.50;6249920;28;20458;-68
2023/12/16 04:15:44;;;;;;;6.63;1.23;;;;;;;7.01;100.00;103329.69;6250493;28;20048;-68
2023/12/16 04:18:46;;;;;;;10.98;1.85;;;;;;;7.05;100.00;103329.69;6250807;28;20049;-68
2023/12/16 04:21:47;;;;;;;4.30;1.08;;;;;;;7.03;100.00;103325.31;6250176;28;20054;-68
2023/12/16 04:24:57;;;;;;;8.30;1.95;;;;;;;7.09;100.00;103327.97;6250245;28;20046;-68
2023/12/16 04:27:58;;;;;;;6.20;1.92;;;;;;;7.02;100.00;103323.56;6250467;28;20060;-67
2023/12/16 04:31:00;;;;;;;6.07;1.75;;;;;;;7.01;100.00;103325.31;6250618;28;20050;-67
2023/12/16 04:34:01;;;;;;;8.75;1.42;;;;;;;7.00;100.00;103320.09;6250289;28;20468;-67
2023/12/16 04:37:02;;;;;;;9.02;1.55;;;;;;;6.96;100.00;103332.28;6250508;28;20053;-68
2023/12/16 04:40:06;;;;;;;4.88;1.63;;;;;;;7.00;100.00;103346.25;6250484;28;20361;-68
2023/12/16 04:43:08;;;;;;;4.35;1.88;;;;;;;6.98;100.00;103342.72;6250208;28;20054;-68
2023/12/16 04:46:09;;;;;;;5.55;1.58;;;;;;;6.91;100.00;103339.22;6250259;28;20061;-68
2023/12/16 04:49:11;;;;;;;5.22;1.02;;;;;;;6.91;100.00;103348.81;6250531;28;20053;-67
2023/12/16 04:52:12;;;;;;;5.72;1.65;;;;;;;6.89;100.00;103348.78;6250298;28;20096;-68
2023/12/16 04:55:15;;;;;;;6.47;1.60;;;;;;;6.86;100.00;103351.41;6250360;28;20053;-67
2023/12/16 04:58:16;;;;;;;8.35;1.40;;;;;;;6.80;100.00;103360.06;6250284;28;20061;-68
2023/12/16 05:01:18;;;;;;;5.90;1.50;;;;;;;6.81;100.00;103363.56;6249741;28;20053;-68
2023/12/16 05:04:19;;;;;;;8.40;1.60;;;;;;;6.78;100.00;103358.34;6250102;28;20449;-68
2023/12/16 05:07:21;;;;;;;16.20;1.55;;;;;;;6.79;100.00;103357.47;6249586;28;20438;-68
2023/12/16 05:10:23;;;;;;;7.50;1.38;;;;;;;6.82;100.00;103360.09;6250373;28;20045;-68
2023/12/16 05:13:25;;;;;;;3.90;1.52;;;;;;;6.78;100.00;103367.06;6249537;28;20060;-68
2023/12/16 05:16:27;;;;;;;15.60;2.13;;;;;;;6.78;100.00;103361.81;6250266;28;20049;-68
2023/12/16 05:19:29;;;;;;;10.07;1.48;;;;;;;6.82;100.00;103371.44;6249656;28;20350;-68
2023/12/16 05:22:33;;;;;;;6.13;1.58;;;;;;;6.83;100.00;103373.16;6250127;28;20056;-68
2023/12/16 05:25:37;;;;;;;2.20;0.82;;;;;;;6.84;100.00;103367.06;6249780;28;20142;-68
2023/12/16 05:28:38;;;;;;;9.15;1.85;;;;;;;6.80;100.00;103365.31;6250048;28;20115;-68
2023/12/16 05:31:39;;;;;;;14.13;1.48;;;;;;;6.76;100.00;103365.28;6250109;28;20072;-68
2023/12/16 05:34:41;;;;;;;16.85;2.78;;;;;;;6.72;100.00;103359.19;6253820;28;20057;-68
2023/12/16 05:37:42;;;;;;;3.03;1.42;;;;;;;6.73;100.00;103367.91;6253944;28;20052;-68
2023/12/16 05:40:45;;;;;;;10.98;1.52;;;;;;;6.78;100.00;103366.19;6254105;28;20430;-68
2023/12/16 05:43:46;;;;;;;3.88;1.70;;;;;;;6.74;100.00;103380.97;6253757;28;20049;-68
2023/12/16 05:46:47;;;;;;;11.00;2.78;;;;;;;6.64;100.00;103389.63;6254222;28;20330;-68
2023/12/16 05:49:49;;;;;;;8.90;1.50;;;;;;;6.59;100.00;103399.19;6253860;28;20060;-68
2023/12/16 05:52:50;;;;;;;15.10;2.70;;;;;;;6.54;100.00;103398.25;6252761;28;20046;-68
2023/12/16 05:55:53;;;;;;;7.68;1.83;;;;;;;6.49;100.00;103389.53;6263198;28;20053;-67
2023/12/16 05:58:54;;;;;;;10.85;2.13;;;;;;;6.48;100.00;103385.16;6263359;28;20176;-67
2023/12/16 06:01:55;;;;;;;10.73;1.90;;;;;;;6.50;100.00;103393.91;6266995;28;20053;-68
2023/12/16 06:04:57;;;;;;;17.27;2.13;;;;;;;6.47;100.00;103393.88;6269990;28;20128;-68
2023/12/16 06:07:58;;;;;;;10.82;2.70;;;;;;;6.40;100.00;103395.56;6269667;28;20373;-68
2023/12/16 06:11:00;;;;;;;8.77;1.83;;;;;;;6.42;100.00;103398.19;6278304;28;20055;-68
2023/12/16 06:14:02;;;;;;;11.48;2.33;;;;;;;6.38;100.00;103401.66;6268053;28;20049;-68
2023/12/16 06:17:03;;;;;;;9.20;2.22;;;;;;;6.33;100.00;103401.63;6267783;28;20060;-68
2023/12/16 06:20:06;;;;;;;11.05;1.73;;;;;;;6.31;100.00;103401.63;6278128;28;20441;-68
2023/12/16 06:23:07;;;;;;;8.98;2.17;;;;;;;6.27;100.00;103398.97;6278178;28;20053;-68
2023/12/16 06:26:10;;;;;;;9.27;1.92;;;;;;;6.26;100.00;103403.28;6277772;28;20049;-68
2023/12/16 06:29:11;;;;;;;4.95;2.10;;;;;;;6.28;100.00;103398.09;6278145;28;20060;-68
2023/12/16 06:32:13;;;;;;;13.50;2.38;;;;;;;6.24;100.00;103401.56;6277655;28;20135;-68
2023/12/16 06:35:14;;;;;;;11.15;2.47;;;;;;;6.24;100.00;103402.41;6245934;28;20046;-68
2023/12/16 06:38:15;;;;;;;8.73;1.63;;;;;;;6.23;100.00;103412.88;6246218;28;20053;-68
2023/12/16 06:41:18;;;;;;;13.88;3.08;;;;;;;6.23;100.00;103399.81;6249357;28;20046;-68
2023/12/16 06:44:19;;;;;;;9.52;1.80;;;;;;;6.18;100.00;103412.84;6229408;28;20351;-68
2023/12/16 06:47:21;;;;;;;7.05;1.88;;;;;;;6.15;100.00;103404.97;6233306;28;20057;-68
2023/12/16 06:50:23;;;;;;;6.97;2.22;;;;;;;6.15;100.00;103404.97;6264831;28;20060;-68
2023/12/16 06:53:24;;;;;;;12.38;2.33;;;;;;;6.20;100.00;103405.88;6252445;28;20053;-67
2023/12/16 06:56:27;;;;;;;7.45;2.35;;;;;;;6.14;100.00;103412.78;6252438;28;20049;-68
2023/12/16 06:59:28;;;;;;;10.55;3.00;;;;;;;6.15;100.00;103414.53;6252351;28;20053;-68
2023/12/16 07:02:29;;;;;;;12.00;1.85;;;;;;;6.10;100.00;103417.97;6252483;28;20045;-68
2023/12/16 07:05:33;;;;;;;10.02;2.53;;;;;;;6.20;100.00;103415.44;6252054;28;20046;-68
2023/12/16 07:08:36;;;;;;;5.65;1.73;;;;;;;6.17;100.00;103424.13;6248993;28;20223;-68
2023/12/16 07:11:40;;;;;;;5.97;1.80;;;;;;;6.16;100.00;103422.38;6238617;28;20053;-68
2023/12/16 07:14:43;;;;;;;7.97;1.98;;;;;;;6.19;100.00;103422.41;6240230;28;20133;-68
2023/12/16 07:17:44;;;;;;;11.18;1.73;;;;;;;6.29;100.00;103423.34;6238138;28;20089;-69
2023/12/16 07:20:45;;;;;;;8.38;2.70;;;;;;;6.25;100.00;103418.97;6248839;28;20053;-69
2023/12/16 07:23:46;;;;;;;5.65;2.33;;;;;;;6.23;100.00;103425.94;6239875;28;20038;-69
2023/12/16 07:26:49;;;;;;;8.13;1.98;;;;;;;6.28;100.00;103417.25;6243730;28;20041;-69
2023/12/16 07:29:52;;;;;;;5.43;1.83;;;;;;;6.35;100.00;103412.94;6253384;28;20045;-69
2023/12/16 07:32:53;;;;;;;6.28;1.83;;;;;;;6.34;100.00;103425.13;6276249;28;20063;-69
2023/12/16 07:35:54;;;;;;;8.57;2.55;;;;;;;6.40;100.00;103412.97;6270935;28;20041;-68
2023/12/16 07:38:57;;;;;;;14.23;2.90;;;;;;;6.43;100.00;103418.22;6267682;28;20334;-69
2023/12/16 07:42:00;;;;;;;13.48;2.22;;;;;;;6.51;100.00;103411.31;6275843;28;20403;-69
2023/12/16 07:45:01;;;;;;;7.03;2.30;;;;;;;6.54;100.00;103404.38;6275912;28;20050;-68
2023/12/16 07:48:03;;;;;;;22.70;2.15;;;;;;;6.55;100.00;103406.13;6275954;28;20056;-69
2023/12/16 07:51:04;;;;;;;13.50;2.58;;;;;;;6.63;100.00;103400.91;6275875;28;20055;-68
2023/12/16 07:54:06;;;;;;;11.18;2.47;;;;;;;6.69;100.00;103395.75;6260472;28;20056;-68
2023/12/16 07:57:08;;;;;;;9.65;1.90;;;;;;;6.66;100.00;103403.56;6261185;28;20052;-68
2023/12/16 08:00:11;;;;;;;15.38;2.60;;;;;;;6.63;100.00;103407.88;6252593;28;20052;-68
2023/12/16 08:03:12;;;;;;;6.30;2.30;;;;;;;6.54;100.00;103406.09;6251057;28;20049;-68
2023/12/16 08:06:16;;;;;;;7.68;2.17;;;;;;;6.55;100.00;103403.50;6250412;28;20339;-68
2023/12/16 08:09:17;;;;;;;6.93;2.17;;;;;;;6.63;100.00;103406.16;6251111;28;20049;-68
2023/12/16 08:12:20;;;;;;;9.43;2.50;;;;;;;6.66;100.00;103406.19;6250535;28;20464;-68
2023/12/16 08:15:21;;;;;;;10.98;2.28;;;;;;;6.75;100.00;103407.97;6267252;28;20041;-67
2023/12/16 08:18:22;;;;;;;7.25;2.03;;;;;;;6.74;100.00;103414.94;6275539;28;20059;-67
2023/12/16 08:21:24;;;;;;;15.55;2.40;;;;;;;6.74;100.00;103412.31;6275355;28;20132;-67
2023/12/16 08:24:25;;;;;;;12.25;2.47;;;;;;;6.72;100.00;103421.00;6275372;28;20053;-68
2023/12/16 08:27:28;;;;;;;5.18;1.80;;;;;;;6.68;100.00;103416.66;6275313;28;20048;-68
2023/12/16 08:30:29;;;;;;;28.30;2.90;;;;;;;6.81;100.00;103416.72;6275433;28;20052;-67
2023/12/16 08:33:31;;;;;;;7.00;2.00;;;;;;;6.89;100.00;103413.28;6274979;28;20060;-68
2023/12/16 08:36:32;;;;;;;3.60;1.75;;;;;;;6.97;100.00;103416.81;6260655;28;20052;-68
2023/12/16 08:39:34;;;;;;;16.60;2.30;;;;;;;7.00;100.00;103401.13;6272603;28;20045;-67
2023/12/16 08:42:37;;;;;;;13.15;2.25;;;;;;;7.05;100.00;103409.88;6268689;28;20048;-67
2023/12/16 08:45:38;;;;;;;12.32;2.80;;;;;;;7.09;100.00;103403.78;6274898;28;20132;-68
2023/12/16 08:48:40;;;;;;;10.60;2.17;;;;;;;7.19;100.00;103386.38;6265592;28;20060;-67
2023/12/16 08:51:42;;;;;;;14.57;2.38;;;;;;;7.17;100.00;103381.13;6269355;28;20052;-67
2023/12/16 08:54:44;;;;;;;11.38;2.35;;;;;;;7.24;100.00;103371.56;6275268;28;20048;-68
2023/12/16 08:57:46;;;;;;;13.98;2.95;;;;;;;7.25;100.00;103389.88;6275227;28;20446;-68
2023/12/16 09:00:48;;;;;;;12.93;3.15;;;;;;;7.33;100.00;103405.59;6274607;28;20131;-67
2023/12/16 09:03:50;;;;;;;13.68;3.15;;;;;;;7.43;100.00;103427.44;6269238;28;20136;-68
2023/12/16 09:06:51;;;;;;;18.15;3.22;;;;;;;7.44;100.00;103422.19;6270904;28;20357;-69
2023/12/16 09:09:52;;;;;;;16.48;2.67;;;;;;;7.48;100.00;103430.94;6279950;28;20064;-69
2023/12/16 09:12:55;;;;;;;14.77;3.63;;;;;;;7.41;100.00;103435.28;6279643;28;20057;-68
2023/12/16 09:15:57;;;;;;;10.90;2.65;;;;;;;7.44;100.00;103430.03;6279429;28;20048;-69
2023/12/16 09:18:58;;;;;;;13.60;2.80;;;;;;;7.45;100.00;103428.28;6279483;28;20413;-69
2023/12/16 09:22:00;;;;;;;16.08;3.58;;;;;;;7.45;100.00;103426.56;6279584;28;20060;-69
2023/12/16 09:25:04;;;;;;;12.55;2.80;;;;;;;7.48;100.00;103434.41;6279304;28;20052;-69
2023/12/16 09:28:06;;;;;;;23.33;2.95;;;;;;;7.51;100.00;103434.44;6279277;28;20056;-68
2023/12/16 09:31:08;;;;;;;8.82;2.40;;;;;;;7.54;100.00;103433.56;6279231;28;20056;-68
2023/12/16 09:34:09;;;;;;;15.73;3.05;;;;;;;7.59;100.00;103421.38;6278950;28;20049;-68
2023/12/16 09:37:10;;;;;;;11.90;2.83;;;;;;;7.55;100.00;103423.09;6279049;28;20045;-69
2023/12/16 09:40:12;;;;;;;17.40;3.25;;;;;;;7.59;100.00;103416.16;6279100;28;20045;-69
2023/12/16 09:43:17;;;;;;;21.45;3.67;;;;;;;7.62;100.00;103413.50;6278696;28;20433;-69
2023/12/16 09:46:19;;;;;;;9.02;2.63;;;;;;;7.66;100.00;103414.41;6278666;28;20509;-68
2023/12/16 09:49:21;;;;;;;15.77;2.72;;;;;;;7.71;100.00;103413.53;6279023;28;20055;-68
2023/12/16 09:52:23;;;;;;;11.80;2.63;;;;;;;7.76;100.00;103421.38;6271383;28;20045;-68
2023/12/16 09:55:24;;;;;;;15.18;2.47;;;;;;;7.76;100.00;103419.63;6261810;28;20049;-79
2023/12/16 09:58:30;;;;;;;10.80;2.50;;;;;;;7.80;100.00;103421.38;6270579;28;20045;-69
2023/12/16 10:01:31;;;;;;;19.83;3.53;;;;;;;7.84;100.00;103414.41;6273758;28;20045;-69
2023/12/16 10:04:35;;;;;;;19.65;4.07;;;;;;;7.87;100.00;103414.44;6270088;28;20052;-68
2023/12/16 10:07:36;;;;;;;17.35;2.85;;;;;;;7.93;100.00;103422.28;6278075;28;20052;-68
2023/12/16 10:10:38;;;;;;;21.33;3.13;;;;;;;7.98;100.00;103399.59;6278491;28;20049;-69
2023/12/16 10:17:07;;;;;;;13.88;2.95;;;;;;;8.18;100.00;103399.59;6316074;28;20387;-69
2023/12/16 10:20:10;;;;;;;13.95;2.70;;;;;;;8.16;100.00;103397.84;6296886;28;20084;-68
2023/12/16 10:23:13;;;;;;;17.63;2.90;;;;;;;8.23;100.00;103390.00;6275083;28;20056;-68
2023/12/16 10:26:15;;;;;;;17.48;3.08;;;;;;;8.16;100.00;103390.00;6271794;28;20052;-69
2023/12/16 10:29:19;;;;;;;21.45;3.00;;;;;;;8.22;100.00;103385.63;6278701;28;20044;-68
2023/12/16 10:32:21;;;;;;;10.55;2.97;;;;;;;8.17;100.00;103383.88;6294685;28;20071;-69
2023/12/16 10:35:23;;;;;;;10.90;2.80;;;;;;;8.12;100.00;103373.41;6296029;28;20441;-68
2023/12/16 10:38:26;;;;;;;16.48;2.85;;;;;;;8.13;100.00;103370.78;6287892;28;20051;-69
2023/12/16 10:41:27;;;;;;;11.45;2.58;;;;;;;8.17;100.00;103371.63;6296403;28;20045;-68
2023/12/16 10:44:28;;;;;;;12.70;2.88;;;;;;;8.15;100.00;103362.94;6296233;28;20071;-68
2023/12/16 10:47:32;;;;;;;15.93;2.88;;;;;;;8.17;100.00;103362.91;6296599;28;20065;-68
2023/12/16 10:50:36;;;;;;;17.42;2.60;;;;;;;8.05;100.00;103353.34;6296154;28;20059;-67
2023/12/16 10:53:40;;;;;;;9.57;2.20;;;;;;;8.10;100.00;103354.22;6295889;28;20349;-68
2023/12/16 10:56:52;;;;;;;20.83;2.88;;;;;;;8.03;100.00;103347.22;6295811;28;20404;-68
2023/12/16 11:00:03;;;;;;;15.95;4.40;;;;;;;8.02;100.00;103337.63;6296187;28;20437;-67
2023/12/16 11:03:13;;;;;;;20.35;3.10;;;;;;;7.93;100.00;103343.72;6295781;28;20080;-67
2023/12/16 11:06:21;;;;;;;14.45;3.80;;;;;;;7.96;100.00;103340.25;6295444;28;20409;-68
2023/12/16 11:09:23;;;;;;;19.88;3.00;;;;;;;7.94;100.00;103324.53;6295722;28;20060;-68
2023/12/16 11:12:25;;;;;;;15.25;2.92;;;;;;;7.88;100.00;103325.41;6295606;28;20072;-68
2023/12/16 11:15:27;;;;;;;13.65;2.88;;;;;;;7.86;100.00;103313.22;6295198;28;20130;-67
2023/12/16 11:18:31;;;;;;;8.25;2.90;;;;;;;7.87;100.00;103317.56;6295271;28;20045;-68
2023/12/16 11:21:33;;;;;;;14.02;3.72;;;;;;;7.81;100.00;103315.84;6295298;28;20056;-68
2023/12/16 11:24:39;;;;;;;20.98;3.53;;;;;;;7.75;100.00;103309.72;6283640;28;20048;-69
2023/12/16 11:27:41;;;;;;;15.82;2.70;;;;;;;7.82;100.00;103314.94;6265455;28;20060;-69
2023/12/16 11:30:42;;;;;;;9.15;2.38;;;;;;;7.84;100.00;103302.72;6237067;28;20053;-68
2023/12/16 11:33:46;;;;;;;29.50;5.38;;;;;;;7.86;100.00;103298.38;6241042;28;20049;-68
2023/12/16 11:36:48;;;;;;;13.00;2.92;;;;;;;7.77;100.00;103298.38;6243618;28;20037;-68
2023/12/16 11:39:50;;;;;;;7.47;2.35;;;;;;;7.89;100.00;103292.25;6235926;28;20434;-68
2023/12/16 11:42:52;;;;;;;15.57;4.72;;;;;;;7.96;100.00;103291.38;6237735;28;20069;-68
2023/12/16 11:45:53;;;;;;;15.50;3.90;;;;;;;8.04;100.00;103273.00;6237998;28;20042;-69
2023/12/16 11:48:56;;;;;;;19.98;3.72;;;;;;;8.14;100.00;103267.78;6248707;28;20049;-69
2023/12/16 11:51:59;;;;;;;13.43;3.53;;;;;;;8.06;100.00;103264.28;6251329;28;20045;-70
2023/12/16 11:55:00;;;;;;;15.43;2.88;;;;;;;8.04;100.00;103270.38;6244941;28;20168;-69
2023/12/16 11:58:02;;;;;;;19.27;3.50;;;;;;;8.04;100.00;103263.44;6253248;28;20350;-70
2023/12/16 12:01:04;;;;;;;10.73;2.75;;;;;;;8.06;100.00;103256.44;6248471;28;20045;-70
2023/12/16 12:04:07;;;;;;;16.58;2.92;;;;;;;8.12;100.00;103256.41;6244766;28;20052;-70
2023/12/16 12:07:08;;;;;;;13.25;2.83;;;;;;;8.12;100.00;103247.69;6245409;28;20049;-70
2023/12/16 12:10:10;;;;;;;9.07;2.60;;;;;;;8.10;100.00;103252.94;6246063;28;20057;-70
2023/12/16 12:13:12;;;;;;;13.32;2.15;;;;;;;8.20;100.00;103248.53;6244382;28;20129;-69
2023/12/16 12:16:13;;;;;;;12.27;2.67;;;;;;;8.14;100.00;103243.31;6248133;28;20048;-68
2023/12/16 12:19:16;;;;;;;21.77;3.58;;;;;;;8.22;100.00;103233.69;6252289;28;20482;-70
2023/12/16 12:22:20;;;;;;;15.07;2.72;;;;;;;8.25;100.00;103235.41;6244340;28;20045;-69
2023/12/16 12:25:21;;;;;;;18.40;2.72;;;;;;;8.25;100.00;103227.56;6245160;28;20073;-68
2023/12/16 12:28:23;;;;;;;8.02;2.28;;;;;;;8.22;100.00;103228.47;6252145;28;20060;-69
2023/12/16 12:31:24;;;;;;;14.95;4.13;;;;;;;8.23;100.00;103224.97;6246942;28;20052;-70
2023/12/16 12:34:27;;;;;;;19.13;2.63;;;;;;;8.26;100.00;103239.78;6252062;28;20041;-70
2023/12/16 12:37:35;;;;;;;20.10;3.15;;;;;;;8.24;100.00;103231.06;6251379;28;20045;-69
2023/12/16 12:40:36;;;;;;;16.05;3.28;;;;;;;8.26;100.00;103230.16;6240370;28;20049;-68
2023/12/16 12:43:38;;;;;;;14.55;3.05;;;;;;;8.30;100.00;103236.28;6233189;28;20045;-70
2023/12/16 12:46:47;;;;;;;11.45;2.33;;;;;;;8.27;100.00;103234.56;6247424;28;20038;-69
2023/12/16 12:49:49;;;;;;;15.73;2.70;;;;;;;8.31;100.00;103232.78;6251633;28;20055;-71
2023/12/16 12:52:52;;;;;;;13.50;2.83;;;;;;;8.30;100.00;103231.03;6243342;28;20049;-70
2023/12/16 12:55:54;;;;;;;15.60;2.85;;;;;;;8.26;100.00;103232.78;6246982;28;20081;-69
2023/12/16 12:58:57;;;;;;;16.88;3.08;;;;;;;8.33;100.00;103241.50;6252003;28;20092;-70
2023/12/16 13:01:58;;;;;;;16.00;3.13;;;;;;;8.21;100.00;103237.19;6243225;28;20057;-69
2023/12/16 13:05:01;;;;;;;16.83;3.13;;;;;;;8.29;100.00;103239.78;6250945;28;20045;-70
2023/12/16 13:08:05;;;;;;;9.70;2.78;;;;;;;8.29;100.00;103237.16;6226644;28;20054;-69
2023/12/16 13:11:07;;;;;;;9.00;2.97;;;;;;;8.29;100.00;103238.03;6240998;28;20050;-69
2023/12/16 13:14:08;;;;;;;15.77;3.08;;;;;;;8.29;100.00;103238.03;6249147;28;20346;-69
2023/12/16 13:17:09;;;;;;;19.65;2.88;;;;;;;8.34;100.00;103217.91;6247530;28;20048;-69
2023/12/16 13:20:12;;;;;;;16.15;3.03;;;;;;;8.36;100.00;103231.94;6243290;28;20049;-70
2023/12/16 13:23:14;;;;;;;14.77;4.30;;;;;;;8.24;100.00;103221.47;6242761;28;20077;-70
2023/12/16 13:26:16;;;;;;;10.82;3.70;;;;;;;8.29;100.00;103217.06;6242968;28;20045;-70
2023/12/16 13:29:18;;;;;;;10.30;3.00;;;;;;;8.34;100.00;103217.91;6243966;28;20050;-69
2023/12/16 13:32:20;;;;;;;13.93;3.22;;;;;;;8.38;100.00;103229.28;6249748;28;20060;-70
2023/12/16 13:35:22;;;;;;;14.23;3.08;;;;;;;8.24;100.00;103236.31;6250830;28;20042;-70
2023/12/16 13:38:24;;;;;;;12.77;3.38;;;;;;;8.23;100.00;103240.69;6250482;28;20446;-69
2023/12/16 13:41:25;;;;;;;12.60;3.75;;;;;;;8.31;100.00;103243.25;6241932;28;20064;-70
2023/12/16 13:44:26;;;;;;;11.50;2.85;;;;;;;8.19;100.00;103245.94;6240270;28;20366;-69
2023/12/16 13:47:28;;;;;;;15.35;3.15;;;;;;;8.23;100.00;103243.28;6234686;28;20049;-69
2023/12/16 13:50:31;;;;;;;12.38;3.13;;;;;;;8.16;100.00;103251.16;6239990;28;20064;-70
2023/12/16 13:53:32;;;;;;;19.15;5.03;;;;;;;8.15;100.00;103245.06;6241433;28;20152;-70
2023/12/16 13:56:33;;;;;;;16.10;3.38;;;;;;;8.13;100.00;103263.41;6230815;28;20052;-69
2023/12/16 13:59:35;;;;;;;16.63;5.80;;;;;;;8.08;100.00;103248.56;6236322;28;20057;-70
2023/12/16 14:02:36;;;;;;;19.77;3.75;;;;;;;8.11;100.00;103238.09;6239584;28;20042;-70